Lanett, AL (36863)

11:40 AM CDT on July 24, 2016 (GMT -0500)
Historic West District | | Change Station

Elev 643 ft 32.88 °N, 85.18 °W | Updated 9 seconds ago

Scattered Clouds
Scattered Clouds
94.3 °F
Feels Like 105 °F
N
1.7
Wind Variable Wind from SSW

Today
High -- | Low -- °F
--% Chance of Precip.
Yesterday
High -- | Low -- °F
Precip. -- in
Pressure 30.07 in
Visibility 10.0 miles
Clouds Scattered Clouds 4400 ft
Scattered Clouds 5000 ft
Heat Index 105 °F
Dew Point 74 °F
Humidity 52%
Rainfall 0.00 in
Snow Depth Not available.
5:49 AM 7:45 PM
Waning Gibbous, 75% visible
METAR KLGC 241615Z AUTO 21004KT 10SM SCT044 SCT050 33/23 A3007 RMK AO2 T03290232
Pressure 30.07 in
Visibility 10.0 miles
Clouds Scattered Clouds 4400 ft
Scattered Clouds 5000 ft
Heat Index 105 °F
Dew Point 74 °F
Humidity 52%
Rainfall 0.00 in
Snow Depth Not available.
5:49 AM 7:45 PM
Waning Gibbous, 75% visible
METAR KLGC 241615Z AUTO 21004KT 10SM SCT044 SCT050 33/23 A3007 RMK AO2 T03290232

10-Day Weather Forecast

Almanac

Astronomy

Jul. 24, 2016 Rise Set
Actual Time
Civil Twilight
Nautical Twilight
Astronomical Twilight
Moon
Length of Visible Light
Length of Day
Tomorrow will be .
, % of the Moon is Illuminated

Today's Extremes

State Highs State Lows

Community

WunderPhotos

Upload Photos

1,927,119 photos uploaded!

WunderBlog® & News

Nearby

Air Quality

  Air Quality AQ Index Pollutant
Not available.

Snow Depth

Station Depth Elevation

Earthquake Activity

City Distance Mag. Time & Date
Minimum magnitude displayed is 2.5.

Coastal Water Temperatures

Place Temperature

Stations

Nearby Weather Stations

Station Location Temp. Windchill Dew Point Humidity Wind Precip. Elev Updated Type
                   

Watches & Warnings

There are currently no watches in effect.